Time;durP1;ratioP1;P1;durP2;ratioP2;P2;SDS_P1;SDS_P2;PMS_P1;PMS_P2;Temp;Humidity;BMP_temperature;BMP_pressure;BME280_temperature;BME280_humidity;BME280_pressure;Samples;Min_cycle;Max_cycle;Signal;HPM_P1;HPM_P2
2022/04/14 00:00:17;;;;;;;35.37;25.13;;;12.80;99.90;;;;;;5017050;28;20195;-78
2022/04/14 00:02:45;;;;;;;32.33;24.63;;;12.70;99.90;;;;;;5029866;28;20215;-78
2022/04/14 00:05:12;;;;;;;31.27;23.67;;;12.60;99.90;;;;;;5030859;28;20314;-78
2022/04/14 00:07:40;;;;;;;33.93;24.53;;;12.60;99.90;;;;;;5042284;28;20288;-78
2022/04/14 00:10:08;;;;;;;30.93;23.33;;;12.60;99.90;;;;;;5031705;28;20218;-79
2022/04/14 00:12:35;;;;;;;31.13;23.77;;;12.50;99.90;;;;;;5030470;28;20212;-82
2022/04/14 00:15:04;;;;;;;34.13;24.43;;;12.50;99.90;;;;;;5043298;28;20626;-81
2022/04/14 00:17:33;;;;;;;30.47;23.13;;;12.60;99.90;;;;;;5027112;28;20264;-80
2022/04/14 00:20:02;;;;;;;33.40;25.07;;;12.50;99.90;;;;;;5023212;28;20341;-79
2022/04/14 00:22:29;;;;;;;32.50;23.00;;;12.50;99.90;;;;;;5027882;28;20213;-82
2022/04/14 00:24:57;;;;;;;32.47;24.33;;;12.40;99.90;;;;;;5032791;28;20284;-82
2022/04/14 00:27:26;;;;;;;36.03;23.77;;;12.40;99.90;;;;;;5027759;28;20276;-81
2022/04/14 00:29:53;;;;;;;34.63;25.57;;;12.40;99.90;;;;;;5029533;28;20226;-82
2022/04/14 00:32:20;;;;;;;34.53;24.07;;;12.50;99.90;;;;;;5029741;28;20204;-82
2022/04/14 00:34:48;;;;;;;32.77;25.17;;;12.50;99.90;;;;;;5030430;28;20776;-81
2022/04/14 00:37:17;;;;;;;33.63;24.87;;;12.50;99.90;;;;;;5030627;28;20212;-81
2022/04/14 00:39:45;;;;;;;34.30;24.67;;;12.40;99.90;;;;;;5029309;28;20243;-81
2022/04/14 00:42:14;;;;;;;38.00;26.17;;;12.30;99.90;;;;;;5024937;28;20654;-79
2022/04/14 00:44:41;;;;;;;35.23;25.47;;;12.30;99.90;;;;;;5031925;28;20611;-82
2022/04/14 00:47:10;;;;;;;34.33;25.77;;;12.40;99.90;;;;;;5024479;28;20226;-81
2022/04/14 00:49:41;;;;;;;34.43;25.50;;;12.50;99.90;;;;;;5020747;28;22553;-81
2022/04/14 00:52:09;;;;;;;36.20;25.30;;;12.50;99.90;;;;;;5024916;28;20208;-81
2022/04/14 00:54:36;;;;;;;31.97;25.07;;;12.40;99.90;;;;;;5039611;28;20209;-82
2022/04/14 00:57:07;;;;;;;34.43;24.57;;;12.50;99.90;;;;;;5029220;28;20301;-78
2022/04/14 00:59:35;;;;;;;35.17;25.53;;;12.50;99.90;;;;;;5029123;28;20681;-78
2022/04/14 01:02:03;;;;;;;32.77;23.87;;;12.50;99.90;;;;;;5009783;28;20195;-83
2022/04/14 01:04:31;;;;;;;31.10;24.63;;;12.40;99.90;;;;;;5028704;28;20211;-82
2022/04/14 01:06:59;;;;;;;36.93;25.80;;;12.30;99.90;;;;;;5050722;28;20226;-82
2022/04/14 01:09:28;;;;;;;32.60;24.20;;;12.30;99.90;;;;;;5026501;28;20208;-79
2022/04/14 01:11:58;;;;;;;28.70;23.83;;;12.40;99.90;;;;;;5029505;28;20236;-76
2022/04/14 01:14:37;;;;;;;32.67;23.83;;;12.60;99.90;;;;;;5020750;28;20209;-76
2022/04/14 01:17:10;;;;;;;32.97;23.87;;;12.70;99.90;;;;;;5027974;28;20221;-76
2022/04/14 01:19:39;;;;;;;33.50;24.63;;;12.50;99.90;;;;;;5034635;28;20415;-79
2022/04/14 01:22:25;;;;;;;33.90;25.10;;;12.40;99.90;;;;;;5009059;28;20241;-75
2022/04/14 01:24:58;;;;;;;36.53;25.03;;;12.50;99.90;;;;;;5037406;28;20209;-74
2022/04/14 01:27:26;;;;;;;32.90;25.30;;;12.40;99.90;;;;;;5027350;28;20234;-75
2022/04/14 01:29:56;;;;;;;38.90;27.23;;;12.30;99.90;;;;;;5026826;28;20736;-76
2022/04/14 01:32:25;;;;;;;32.30;24.50;;;12.30;99.90;;;;;;5036896;28;20227;-75
2022/04/14 01:34:55;;;;;;;34.87;26.80;;;12.20;99.90;;;;;;5026694;28;20306;-77
2022/04/14 01:37:24;;;;;;;33.13;25.30;;;12.20;99.90;;;;;;5041654;28;20218;-77
2022/04/14 01:39:52;;;;;;;35.87;24.60;;;12.10;99.90;;;;;;5025908;28;20680;-77
2022/04/14 01:42:20;;;;;;;37.77;25.70;;;12.20;99.90;;;;;;5013565;28;20210;-80
2022/04/14 01:44:48;;;;;;;33.03;24.40;;;12.10;99.90;;;;;;5026974;28;20195;-80
2022/04/14 01:47:18;;;;;;;34.33;25.30;;;12.10;99.90;;;;;;5026212;28;20599;-82
2022/04/14 01:49:47;;;;;;;33.93;23.87;;;12.10;99.90;;;;;;5012102;28;20295;-80
2022/04/14 01:52:14;;;;;;;32.63;24.27;;;12.00;99.90;;;;;;5044913;28;20228;-80
2022/04/14 01:54:43;;;;;;;35.17;24.67;;;12.00;99.90;;;;;;5025239;28;20877;-79
2022/04/14 01:57:10;;;;;;;32.30;24.03;;;12.00;99.90;;;;;;5029265;28;20339;-80
2022/04/14 01:59:37;;;;;;;33.93;24.37;;;12.00;99.90;;;;;;5034197;28;20207;-80
2022/04/14 02:02:05;;;;;;;32.63;23.67;;;12.00;99.90;;;;;;5031186;28;20206;-79
2022/04/14 02:04:34;;;;;;;31.80;23.90;;;12.00;99.90;;;;;;5036952;28;20246;-79
2022/04/14 02:07:05;;;;;;;32.80;22.87;;;11.90;99.90;;;;;;5044408;28;20234;-80
2022/04/14 02:09:32;;;;;;;28.33;22.30;;;11.90;99.90;;;;;;5027768;28;20624;-80
2022/04/14 02:11:59;;;;;;;31.10;23.37;;;11.80;99.90;;;;;;5028959;28;20191;-80
2022/04/14 02:14:26;;;;;;;30.30;22.17;;;11.90;99.90;;;;;;5045400;28;20207;-81
2022/04/14 02:16:53;;;;;;;28.00;21.67;;;11.90;99.90;;;;;;5041199;28;20650;-80
2022/04/14 02:19:22;;;;;;;28.43;21.97;;;11.80;99.90;;;;;;5040643;28;20211;-79
2022/04/14 02:21:49;;;;;;;30.50;22.40;;;11.80;99.90;;;;;;5040045;28;20239;-79
2022/04/14 02:24:17;;;;;;;31.20;22.87;;;11.70;99.90;;;;;;5026907;28;20226;-79
2022/04/14 02:26:44;;;;;;;30.50;24.03;;;11.80;99.90;;;;;;5028336;28;20573;-80
2022/04/14 02:29:11;;;;;;;31.80;24.33;;;11.90;99.90;;;;;;5026365;28;20239;-81
2022/04/14 02:31:41;;;;;;;32.97;24.03;;;12.00;99.90;;;;;;5011738;28;20217;-81
2022/04/14 02:34:12;;;;;;;29.80;22.70;;;12.10;99.90;;;;;;5037261;28;20231;-76
2022/04/14 02:36:39;;;;;;;35.07;24.33;;;12.20;99.90;;;;;;5033046;28;20814;-81
2022/04/14 02:39:06;;;;;;;30.87;23.67;;;12.20;99.90;;;;;;5027642;28;20223;-80
2022/04/14 02:41:33;;;;;;;30.00;23.30;;;12.30;99.90;;;;;;5040862;28;20220;-80
2022/04/14 02:44:03;;;;;;;31.60;23.27;;;12.30;99.90;;;;;;5031092;28;20223;-79
2022/04/14 02:46:30;;;;;;;27.40;21.97;;;12.30;99.90;;;;;;5028432;28;20866;-79
2022/04/14 02:49:01;;;;;;;29.50;22.53;;;12.30;99.90;;;;;;5029683;28;20598;-80
2022/04/14 02:51:28;;;;;;;30.57;23.10;;;12.20;99.90;;;;;;5026837;28;20194;-80
2022/04/14 02:53:56;;;;;;;30.23;23.17;;;12.20;99.90;;;;;;5041433;28;20242;-80
2022/04/14 02:56:25;;;;;;;31.90;23.60;;;12.20;99.90;;;;;;5029010;28;20230;-81
2022/04/14 02:58:53;;;;;;;29.50;22.07;;;12.20;99.90;;;;;;5043874;28;20269;-79
2022/04/14 03:01:22;;;;;;;30.73;22.97;;;12.20;99.90;;;;;;5043766;28;20223;-81
2022/04/14 03:03:50;;;;;;;26.87;22.20;;;12.20;99.90;;;;;;5028198;28;20214;-77
2022/04/14 03:06:19;;;;;;;27.90;22.80;;;12.20;99.90;;;;;;5028937;28;20718;-80
2022/04/14 03:08:46;;;;;;;28.87;22.50;;;12.10;99.90;;;;;;5031116;28;20222;-80
2022/04/14 03:11:17;;;;;;;28.90;22.07;;;11.90;99.90;;;;;;5026588;28;20207;-80
2022/04/14 03:13:44;;;;;;;27.20;21.77;;;11.90;99.90;;;;;;5025160;28;20633;-80
2022/04/14 03:16:13;;;;;;;31.03;22.53;;;11.90;99.90;;;;;;5025827;28;20666;-80
2022/04/14 03:18:42;;;;;;;29.67;23.00;;;11.90;99.90;;;;;;5030281;28;20219;-80
2022/04/14 03:21:11;;;;;;;28.27;21.57;;;11.90;99.90;;;;;;5025579;28;20211;-82
2022/04/14 03:23:39;;;;;;;32.40;22.00;;;11.80;99.90;;;;;;5043149;28;20199;-81
2022/04/14 03:26:08;;;;;;;23.37;19.20;;;11.80;99.90;;;;;;5030445;28;20250;-81
2022/04/14 03:28:36;;;;;;;25.90;19.10;;;11.80;99.90;;;;;;5028274;28;20242;-80
2022/04/14 03:31:05;;;;;;;33.53;19.37;;;11.90;99.90;;;;;;5039566;28;20273;-82
2022/04/14 03:33:33;;;;;;;20.20;16.50;;;11.80;99.90;;;;;;5032610;28;20223;-80
2022/04/14 03:36:01;;;;;;;43.33;16.47;;;11.80;99.90;;;;;;5017448;28;20217;-80
2022/04/14 03:38:31;;;;;;;23.53;15.87;;;11.70;99.90;;;;;;5006573;28;20212;-80
2022/04/14 03:41:05;;;;;;;41.77;15.37;;;11.60;99.90;;;;;;5006284;28;20207;-81
2022/04/14 03:43:33;;;;;;;28.67;17.00;;;11.40;99.90;;;;;;4991913;28;20288;-81
2022/04/14 03:46:05;;;;;;;25.00;17.93;;;11.20;99.90;;;;;;4989974;28;20702;-77
2022/04/14 03:48:33;;;;;;;21.57;17.23;;;11.30;99.90;;;;;;5013006;28;20246;-82
2022/04/14 03:51:02;;;;;;;22.30;18.13;;;11.50;99.90;;;;;;5007815;28;20264;-81
2022/04/14 03:53:31;;;;;;;23.27;17.57;;;11.50;99.90;;;;;;5008768;28;20299;-81
2022/04/14 03:55:58;;;;;;;22.77;15.43;;;11.50;99.90;;;;;;5027711;28;20203;-82
2022/04/14 03:58:27;;;;;;;27.73;14.47;;;11.50;99.90;;;;;;5009416;28;20219;-81
2022/04/14 04:00:54;;;;;;;17.37;12.97;;;11.40;99.90;;;;;;5006218;28;20288;-81
2022/04/14 04:03:22;;;;;;;24.00;11.53;;;11.40;99.90;;;;;;5012071;28;20261;-80
2022/04/14 04:05:50;;;;;;;13.97;12.50;;;11.40;99.90;;;;;;5007108;28;20227;-81
2022/04/14 04:08:18;;;;;;;19.53;12.97;;;11.30;99.90;;;;;;5000207;28;20217;-79
2022/04/14 04:10:45;;;;;;;25.97;13.60;;;11.40;99.90;;;;;;5022863;28;20204;-83
2022/04/14 04:13:14;;;;;;;51.10;14.97;;;11.20;99.90;;;;;;5009860;28;20277;-81
2022/04/14 04:15:42;;;;;;;55.27;14.50;;;11.00;99.90;;;;;;5019594;28;20549;-79
2022/04/14 04:18:09;;;;;;;59.17;13.67;;;10.80;99.90;;;;;;5022523;28;20203;-82
2022/04/14 04:20:38;;;;;;;20.67;14.27;;;10.80;99.90;;;;;;5020808;28;20203;-80
2022/04/14 04:23:06;;;;;;;45.93;14.87;;;10.70;99.90;;;;;;5005813;28;20305;-80
2022/04/14 04:25:33;;;;;;;45.43;13.57;;;10.90;99.90;;;;;;4991556;28;20279;-81
2022/04/14 04:28:01;;;;;;;37.10;13.07;;;10.80;99.90;;;;;;5020874;28;20243;-80
2022/04/14 04:30:28;;;;;;;29.50;12.77;;;10.60;99.90;;;;;;5021806;28;20223;-81
2022/04/14 04:32:58;;;;;;;14.67;13.07;;;10.60;99.90;;;;;;5028037;28;20235;-78
2022/04/14 04:35:26;;;;;;;20.23;13.50;;;10.80;99.90;;;;;;5043447;28;20635;-81
2022/04/14 04:37:53;;;;;;;27.70;12.70;;;10.80;99.90;;;;;;5026733;28;20290;-80
2022/04/14 04:40:21;;;;;;;24.80;12.87;;;10.60;99.90;;;;;;5031283;28;20269;-81
2022/04/14 04:42:50;;;;;;;21.13;15.87;;;10.30;99.90;;;;;;5027540;28;20250;-80
2022/04/14 04:45:20;;;;;;;21.07;15.40;;;10.30;99.90;;;;;;5027755;28;20505;-79
2022/04/14 04:47:49;;;;;;;20.17;16.10;;;10.30;99.90;;;;;;5044558;28;20230;-80
2022/04/14 04:50:16;;;;;;;20.17;15.50;;;10.40;99.90;;;;;;5028029;28;20209;-80
2022/04/14 04:52:44;;;;;;;19.53;16.37;;;10.30;99.90;;;;;;5024502;28;20368;-80
2022/04/14 04:55:11;;;;;;;22.83;17.73;;;10.40;99.90;;;;;;5030521;28;20275;-80
2022/04/14 04:57:39;;;;;;;21.30;16.93;;;10.20;99.90;;;;;;5046035;28;20308;-81
2022/04/14 05:00:07;;;;;;;21.60;16.73;;;10.40;99.90;;;;;;5013764;28;20231;-80
2022/04/14 05:02:34;;;;;;;22.13;16.80;;;10.30;99.90;;;;;;5026581;28;20675;-80
2022/04/14 05:05:01;;;;;;;25.13;19.23;;;10.20;99.90;;;;;;5025804;28;20225;-79
2022/04/14 05:07:32;;;;;;;23.50;17.73;;;10.20;99.90;;;;;;5040249;28;20275;-76
2022/04/14 05:09:59;;;;;;;22.40;17.57;;;10.30;99.90;;;;;;5028769;28;20204;-76
2022/04/14 05:12:35;;;;;;;22.50;16.97;;;10.20;99.90;;;;;;5032506;28;20202;-76
2022/04/14 05:15:04;;;;;;;21.07;17.50;;;10.10;99.90;;;;;;5025837;28;21836;-76
2022/04/14 05:17:32;;;;;;;22.57;17.80;;;10.10;99.90;;;;;;5029299;28;20377;-79
2022/04/14 05:20:00;;;;;;;19.43;15.97;;;10.20;99.90;;;;;;5022717;28;20295;-74
2022/04/14 05:22:27;;;;;;;19.90;15.87;;;10.20;99.90;;;;;;5041281;28;20216;-74
2022/04/14 05:24:54;;;;;;;19.77;15.60;;;10.10;99.90;;;;;;5023173;28;20204;-74
2022/04/14 05:27:23;;;;;;;20.80;17.03;;;10.20;99.90;;;;;;5024794;28;20244;-76
2022/04/14 05:29:52;;;;;;;19.97;16.67;;;10.10;99.90;;;;;;5029662;28;20235;-75
2022/04/14 05:32:21;;;;;;;18.63;15.93;;;10.10;99.90;;;;;;5015548;28;20249;-75
2022/04/14 05:34:55;;;;;;;17.33;15.13;;;10.10;99.90;;;;;;5041685;28;20299;-75
2022/04/14 05:37:22;;;;;;;18.50;15.30;;;10.00;99.90;;;;;;5041757;28;20349;-74
2022/04/14 05:39:50;;;;;;;19.07;15.20;;;10.10;99.90;;;;;;5025798;28;20223;-75
2022/04/14 05:42:18;;;;;;;20.17;16.20;;;10.50;99.90;;;;;;5026023;28;20209;-75
2022/04/14 05:44:45;;;;;;;17.10;14.93;;;10.60;99.90;;;;;;5031905;28;20610;-74
2022/04/14 05:47:12;;;;;;;22.37;18.00;;;10.60;99.90;;;;;;5025769;28;20282;-80
2022/04/14 05:49:40;;;;;;;18.27;15.60;;;10.60;99.90;;;;;;5041103;28;20289;-80
2022/04/14 05:52:11;;;;;;;19.40;15.73;;;10.70;99.90;;;;;;5023996;28;20238;-79
2022/04/14 05:54:38;;;;;;;19.47;16.23;;;10.70;99.90;;;;;;5030730;28;20248;-81
2022/04/14 05:57:11;;;;;;;18.77;15.17;;;10.90;99.90;;;;;;5051206;28;20216;-84
2022/04/14 05:59:42;;;;;;;18.57;15.43;;;11.00;99.90;;;;;;5035784;28;20211;-81
2022/04/14 06:02:21;;;;;;;18.63;16.37;;;11.10;99.90;;;;;;5029632;28;20641;-82
2022/04/14 06:04:52;;;;;;;18.33;16.03;;;11.10;99.90;;;;;;5043989;28;20639;-79
2022/04/14 06:07:19;;;;;;;21.20;16.13;;;10.90;99.90;;;;;;5032940;28;20315;-81
2022/04/14 06:09:46;;;;;;;18.93;15.27;;;10.80;99.90;;;;;;5041790;28;20211;-81
2022/04/14 06:12:15;;;;;;;22.47;17.20;;;10.80;99.90;;;;;;5033310;28;20550;-81
2022/04/14 06:14:52;;;;;;;20.10;16.33;;;10.90;99.90;;;;;;5030764;28;20201;-80
2022/04/14 06:17:22;;;;;;;22.00;16.83;;;11.00;99.90;;;;;;5032843;28;20216;-81
2022/04/14 06:19:52;;;;;;;21.73;17.20;;;11.00;99.90;;;;;;5047061;28;20304;-81
2022/04/14 06:22:20;;;;;;;20.93;16.50;;;11.10;99.90;;;;;;5049575;28;20199;-81
2022/04/14 06:24:56;;;;;;;20.43;17.17;;;11.30;99.90;;;;;;5038462;28;20203;-80
2022/04/14 06:27:23;;;;;;;23.30;17.20;;;11.60;99.90;;;;;;5039259;28;20251;-81
2022/04/14 06:29:52;;;;;;;21.17;16.90;;;11.80;99.90;;;;;;5035983;28;20321;-81
2022/04/14 06:32:20;;;;;;;20.80;16.97;;;11.70;99.90;;;;;;5036696;28;20201;-80
2022/04/14 06:34:53;;;;;;;21.27;17.07;;;11.70;99.90;;;;;;5035347;28;20271;-80
2022/04/14 06:37:20;;;;;;;19.70;16.50;;;11.90;99.90;;;;;;5040721;28;20264;-79
2022/04/14 06:39:49;;;;;;;24.17;17.67;;;12.00;99.90;;;;;;5034833;28;20311;-80
2022/04/14 06:42:22;;;;;;;20.10;15.67;;;12.10;99.90;;;;;;5037254;28;20629;-80
2022/04/14 06:44:57;;;;;;;20.57;16.80;;;12.20;99.90;;;;;;5028300;28;20202;-80
2022/04/14 06:47:24;;;;;;;22.13;15.53;;;12.30;99.90;;;;;;5028479;28;20582;-79
2022/04/14 06:49:52;;;;;;;24.27;15.20;;;12.50;99.90;;;;;;5034749;28;20209;-80
2022/04/14 06:52:21;;;;;;;18.23;14.77;;;13.10;99.90;;;;;;5029243;28;20207;-79
2022/04/14 06:54:49;;;;;;;18.63;14.33;;;13.10;99.90;;;;;;5010186;28;20287;-81
2022/04/14 06:57:17;;;;;;;18.70;14.80;;;12.90;99.90;;;;;;5024893;28;20211;-81
2022/04/14 06:59:46;;;;;;;16.90;14.50;;;12.80;99.90;;;;;;5030729;28;20976;-80
2022/04/14 07:02:14;;;;;;;25.10;14.37;;;13.20;99.90;;;;;;5013158;28;20382;-78
2022/04/14 07:04:41;;;;;;;21.70;14.63;;;13.30;99.90;;;;;;5025168;28;20217;-77
2022/04/14 07:07:09;;;;;;;19.03;13.43;;;12.90;99.90;;;;;;5023762;28;20268;-76
2022/04/14 07:09:37;;;;;;;17.43;13.93;;;13.10;99.90;;;;;;5025698;28;20212;-79
2022/04/14 07:12:08;;;;;;;23.10;14.70;;;13.20;99.90;;;;;;5043194;28;20269;-80
2022/04/14 07:14:35;;;;;;;15.73;13.73;;;13.40;99.90;;;;;;5023031;28;20200;-80
2022/04/14 07:17:02;;;;;;;18.67;12.63;;;13.50;99.90;;;;;;5023952;28;20245;-79
2022/04/14 07:22:26;;;;;;;15.53;12.33;;;14.00;99.90;;;;;;4659464;22;20291;-54
2022/04/14 07:24:53;;;;;;;17.43;13.20;;;14.30;99.90;;;;;;5060708;28;20357;-54
2022/04/14 07:27:21;;;;;;;15.43;12.63;;;14.30;99.90;;;;;;5060824;28;20628;-56
2022/04/14 07:29:48;;;;;;;19.33;15.20;;;14.60;99.90;;;;;;5060199;28;20231;-54
2022/04/14 07:32:15;;;;;;;20.57;18.47;;;14.40;99.90;;;;;;5062831;28;20204;-55
2022/04/14 07:34:42;;;;;;;19.20;16.90;;;14.60;99.90;;;;;;5058658;28;20292;-53
2022/04/14 07:37:10;;;;;;;15.23;13.33;;;15.00;99.90;;;;;;5064244;28;20234;-54
2022/04/14 07:39:37;;;;;;;16.77;13.83;;;14.80;99.90;;;;;;5061412;28;20619;-54
2022/04/14 07:42:10;;;;;;;18.63;13.47;;;14.40;99.90;;;;;;5050758;28;20208;-54
2022/04/14 07:44:36;;;;;;;17.07;12.90;;;15.00;99.90;;;;;;5061018;28;20204;-54
2022/04/14 07:47:03;;;;;;;15.70;11.93;;;15.00;99.90;;;;;;5064426;28;20211;-54
2022/04/14 07:49:30;;;;;;;18.00;9.73;;;14.80;99.90;;;;;;5063213;28;20296;-54
2022/04/14 07:51:57;;;;;;;14.10;10.43;;;15.10;99.90;;;;;;5066665;28;20276;-53
2022/04/14 07:54:24;;;;;;;14.63;10.90;;;15.20;99.90;;;;;;5065658;28;20257;-54
2022/04/14 07:56:51;;;;;;;13.03;9.20;;;15.20;99.90;;;;;;5065332;28;20205;-54
2022/04/14 07:59:18;;;;;;;15.53;9.47;;;14.90;99.90;;;;;;5064842;28;20287;-54
2022/04/14 08:01:45;;;;;;;12.53;9.17;;;14.90;99.90;;;;;;5065301;28;20613;-54
2022/04/14 08:04:12;;;;;;;14.27;9.23;;;15.20;99.90;;;;;;5064628;28;20191;-54
2022/04/14 08:06:39;;;;;;;11.37;8.67;;;15.20;99.90;;;;;;5060214;28;20200;-55
2022/04/14 08:09:09;;;;;;;12.30;9.40;;;15.50;99.90;;;;;;5061617;28;20213;-55
2022/04/14 08:11:36;;;;;;;10.67;8.83;;;15.70;99.90;;;;;;5062555;28;20196;-54
2022/04/14 08:14:03;;;;;;;10.97;8.33;;;16.10;99.90;;;;;;5057560;28;20293;-54
2022/04/14 08:16:30;;;;;;;12.07;9.30;;;16.30;99.90;;;;;;5064127;28;20297;-54
2022/04/14 08:18:57;;;;;;;18.13;13.83;;;16.10;99.90;;;;;;5064449;28;20287;-54
2022/04/14 08:21:24;;;;;;;19.37;14.53;;;15.90;99.90;;;;;;5056264;28;20324;-53
2022/04/14 08:23:52;;;;;;;14.57;11.13;;;16.30;99.90;;;;;;5062539;28;20616;-54
2022/04/14 08:26:19;;;;;;;13.77;8.00;;;16.70;99.90;;;;;;5069199;28;20203;-54
2022/04/14 08:28:47;;;;;;;11.47;7.80;;;17.10;99.90;;;;;;5064098;28;20274;-55
2022/04/14 08:31:14;;;;;;;14.17;6.93;;;17.30;99.90;;;;;;5064773;28;20199;-55
2022/04/14 08:33:43;;;;;;;10.17;7.17;;;17.00;99.90;;;;;;5061999;28;20233;-54
2022/04/14 08:36:15;;;;;;;11.07;6.13;;;16.60;99.90;;;;;;5067631;28;20234;-55
2022/04/14 08:38:45;;;;;;;9.80;6.27;;;16.50;99.90;;;;;;5069165;28;20214;-54
2022/04/14 08:41:14;;;;;;;8.27;6.00;;;16.50;99.90;;;;;;5064396;28;20561;-53
2022/04/14 08:43:58;;;;;;;10.17;7.10;;;17.10;99.90;;;;;;5064203;28;20296;-54
2022/04/14 08:46:27;;;;;;;8.73;6.07;;;18.10;99.90;;;;;;5067517;28;20279;-53
2022/04/14 08:49:02;;;;;;;10.00;6.90;;;18.70;99.90;;;;;;5067738;28;20306;-53
2022/04/14 08:51:36;;;;;;;8.47;6.13;;;18.40;99.90;;;;;;5067461;28;20272;-54
2022/04/14 08:54:03;;;;;;;10.57;5.70;;;18.90;99.90;;;;;;5065895;28;20568;-54
2022/04/14 08:56:30;;;;;;;9.73;5.67;;;18.50;99.90;;;;;;5059864;28;20255;-54
2022/04/14 08:58:57;;;;;;;8.97;5.60;;;18.20;99.90;;;;;;5058890;28;20247;-55
2022/04/14 09:01:26;;;;;;;7.13;5.30;;;19.10;99.90;;;;;;5066424;28;20245;-54
2022/04/14 09:03:55;;;;;;;8.57;5.30;;;19.10;99.90;;;;;;5064635;28;20207;-54
2022/04/14 09:06:23;;;;;;;9.97;6.30;;;18.80;99.90;;;;;;5060504;28;20204;-54
2022/04/14 09:08:49;;;;;;;6.63;5.63;;;18.90;99.90;;;;;;5065874;28;20245;-53
2022/04/14 09:11:18;;;;;;;8.10;5.40;;;19.10;99.90;;;;;;5063801;28;20249;-54
2022/04/14 09:13:46;;;;;;;6.57;4.93;;;19.70;99.90;;;;;;5059791;28;20205;-54
2022/04/14 09:16:13;;;;;;;7.83;4.80;;;19.50;99.90;;;;;;5061261;28;20213;-53
2022/04/14 09:18:40;;;;;;;8.73;5.20;;;19.70;99.90;;;;;;5062874;28;20682;-54
2022/04/14 09:21:08;;;;;;;6.27;4.73;;;19.30;99.90;;;;;;5064720;28;20662;-54
2022/04/14 09:23:36;;;;;;;8.53;5.53;;;19.80;99.90;;;;;;5056283;28;20713;-54
2022/04/14 09:26:09;;;;;;;6.10;4.37;;;19.40;99.90;;;;;;5057600;28;20206;-53
2022/04/14 09:28:36;;;;;;;8.03;5.23;;;19.10;99.90;;;;;;5061052;28;20663;-54
2022/04/14 09:31:12;;;;;;;6.67;5.23;;;18.50;99.90;;;;;;5061657;28;20250;-55
2022/04/14 09:33:48;;;;;;;9.47;4.67;;;18.30;99.90;;;;;;5060452;28;20287;-53
2022/04/14 09:36:17;;;;;;;7.27;4.80;;;18.80;99.90;;;;;;5065638;28;20235;-54
2022/04/14 09:38:49;;;;;;;9.23;5.47;;;19.60;99.90;;;;;;5068124;28;20325;-53
2022/04/14 09:41:37;;;;;;;6.13;4.13;;;19.80;99.90;;;;;;5064635;28;20285;-54
2022/04/14 09:44:12;;;;;;;8.30;4.23;;;20.20;99.90;;;;;;5068155;28;20314;-53
2022/04/14 09:46:44;;;;;;;6.67;4.27;;;20.00;99.90;;;;;;5065836;28;20284;-54
2022/04/14 09:49:15;;;;;;;5.30;4.57;;;20.20;99.90;;;;;;5064438;28;20304;-52
2022/04/14 09:51:47;;;;;;;6.03;4.13;;;20.70;99.90;;;;;;5068410;28;20202;-54
2022/04/14 09:54:28;;;;;;;6.53;4.63;;;20.50;99.90;;;;;;5069005;28;20235;-59
2022/04/14 09:56:56;;;;;;;6.27;4.10;;;20.70;99.90;;;;;;5065960;28;20201;-59
2022/04/14 09:59:28;;;;;;;5.90;4.00;;;20.20;99.90;;;;;;5070019;28;20577;-59
2022/04/14 10:02:08;;;;;;;6.83;3.63;;;20.60;99.90;;;;;;5069445;28;20239;-59
2022/04/14 10:04:38;;;;;;;5.90;4.00;;;20.50;99.90;;;;;;5068367;28;20200;-60
2022/04/14 10:07:15;;;;;;;7.17;4.60;;;21.00;99.90;;;;;;5066892;28;20299;-59
2022/04/14 10:09:43;;;;;;;7.77;5.10;;;20.60;99.90;;;;;;5069894;28;20280;-59
2022/04/14 10:12:19;;;;;;;6.43;4.37;;;20.90;99.90;;;;;;5066463;28;20238;-61
2022/04/14 10:14:58;;;;;;;8.03;3.83;;;21.10;99.90;;;;;;5066840;28;20991;-60
2022/04/14 10:17:27;;;;;;;7.07;4.03;;;21.30;99.90;;;;;;5068724;28;20187;-58
2022/04/14 10:19:54;;;;;;;6.33;3.70;;;20.60;99.90;;;;;;5067823;28;20679;-61
2022/04/14 10:22:21;;;;;;;5.77;3.57;;;20.40;99.90;;;;;;5058597;28;20630;-60
2022/04/14 10:24:51;;;;;;;7.07;4.43;;;20.60;99.90;;;;;;5047103;28;20213;-60
2022/04/14 10:27:20;;;;;;;5.20;3.00;;;20.20;99.90;;;;;;5047273;28;20203;-60
2022/04/14 10:29:47;;;;;;;4.10;2.27;;;20.20;99.90;;;;;;5041786;28;20273;-60
2022/04/14 10:32:14;;;;;;;6.00;3.27;;;20.20;99.90;;;;;;5049262;28;20722;-60
2022/04/14 10:34:41;;;;;;;7.53;2.70;;;20.40;99.90;;;;;;5048417;28;20657;-59
2022/04/14 10:37:10;;;;;;;4.97;3.37;;;20.20;99.90;;;;;;5044611;28;20340;-59
2022/04/14 10:39:42;;;;;;;6.23;4.07;;;20.50;99.90;;;;;;5041367;28;20686;-60
2022/04/14 10:42:11;;;;;;;8.10;4.20;;;20.50;99.90;;;;;;5037216;28;20251;-61
2022/04/14 10:44:46;;;;;;;8.63;4.30;;;20.70;99.90;;;;;;5037910;28;20688;-60
2022/04/14 10:47:43;;;;;;;6.43;4.20;;;20.40;99.90;;;;;;5029461;28;20207;-60
2022/04/14 10:50:22;;;;;;;6.03;4.40;;;20.40;99.90;;;;;;5008547;28;20259;-60
2022/04/14 10:53:06;;;;;;;7.20;4.57;;;20.30;99.90;;;;;;5048056;28;20207;-61
2022/04/14 10:55:35;;;;;;;8.50;4.60;;;20.20;99.90;;;;;;5043537;28;20617;-60
2022/04/14 10:58:03;;;;;;;7.87;4.53;;;20.40;99.90;;;;;;5047465;28;20610;-59
2022/04/14 11:00:36;;;;;;;5.83;4.57;;;20.10;99.90;;;;;;5014176;28;20227;-59
2022/04/14 11:03:12;;;;;;;6.07;4.10;;;20.40;99.90;;;;;;5044751;28;20211;-58
2022/04/14 11:05:41;;;;;;;6.67;4.67;;;20.80;99.90;;;;;;5040533;28;20195;-59
2022/04/14 11:08:23;;;;;;;8.30;4.27;;;20.60;99.90;;;;;;5045949;28;20309;-59
2022/04/14 11:11:17;;;;;;;6.97;4.40;;;20.80;99.90;;;;;;5045011;28;20664;-59
2022/04/14 11:14:05;;;;;;;7.60;4.50;;;21.00;99.90;;;;;;5047111;28;20204;-59
2022/04/14 11:16:42;;;;;;;5.90;4.63;;;20.90;99.90;;;;;;5046478;28;20194;-60
2022/04/14 11:19:27;;;;;;;7.03;5.10;;;21.00;99.90;;;;;;5048303;28;20203;-60
2022/04/14 11:22:02;;;;;;;8.00;4.97;;;21.20;99.90;;;;;;5050012;28;20295;-60
2022/04/14 11:24:41;;;;;;;9.97;6.70;;;21.30;99.90;;;;;;5065668;28;20202;-60
2022/04/14 11:27:26;;;;;;;9.80;5.83;;;21.10;99.90;;;;;;5067724;28;20292;-60
2022/04/14 11:30:03;;;;;;;9.60;6.67;;;20.70;99.90;;;;;;5064536;28;20216;-60
2022/04/14 11:32:40;;;;;;;10.33;6.37;;;20.20;99.90;;;;;;5065808;28;20187;-59
2022/04/14 11:35:30;;;;;;;8.20;6.07;;;20.20;99.90;;;;;;5063009;28;20195;-59
2022/04/14 11:37:58;;;;;;;6.73;5.63;;;20.10;99.90;;;;;;5065890;28;20194;-59
2022/04/14 11:40:26;;;;;;;9.10;5.97;;;20.60;99.90;;;;;;5066390;28;20223;-60
2022/04/14 11:42:57;;;;;;;8.73;5.50;;;20.20;99.90;;;;;;5059020;28;20553;-60
2022/04/14 11:45:27;;;;;;;8.13;5.00;;;20.20;99.90;;;;;;5062020;28;20208;-60
2022/04/14 11:48:00;;;;;;;6.40;3.77;;;20.60;99.90;;;;;;5048728;28;20209;-60
2022/04/14 11:50:29;;;;;;;7.27;4.13;;;20.90;99.90;;;;;;5062186;28;20199;-60
2022/04/14 11:53:00;;;;;;;5.73;4.03;;;20.70;99.90;;;;;;5065978;28;20276;-60
2022/04/14 11:55:38;;;;;;;6.13;4.40;;;20.30;99.90;;;;;;5066444;28;20284;-60
2022/04/14 11:58:07;;;;;;;8.57;4.40;;;19.80;99.90;;;;;;5066288;28;20683;-60
2022/04/14 12:00:48;;;;;;;8.37;4.27;;;19.60;99.90;;;;;;5064748;28;20700;-60
2022/04/14 12:03:36;;;;;;;7.20;4.73;;;19.60;99.90;;;;;;5060865;28;20212;-59
2022/04/14 12:06:06;;;;;;;6.20;4.63;;;20.00;99.90;;;;;;5063862;28;20227;-59
2022/04/14 12:08:33;;;;;;;7.13;3.93;;;20.40;99.90;;;;;;5060283;28;20206;-61
2022/04/14 12:11:13;;;;;;;5.77;3.80;;;20.80;99.90;;;;;;5061560;28;20213;-59
2022/04/14 12:13:40;;;;;;;7.60;4.30;;;21.00;99.90;;;;;;5057668;28;20201;-60
2022/04/14 12:16:09;;;;;;;5.37;3.60;;;20.80;99.90;;;;;;5058505;28;20227;-58
2022/04/14 12:18:39;;;;;;;6.80;3.93;;;20.60;99.90;;;;;;5042294;28;20233;-61
2022/04/14 12:21:16;;;;;;;6.23;3.87;;;20.50;99.90;;;;;;5061988;28;20290;-60
2022/04/14 12:23:51;;;;;;;8.07;4.90;;;21.00;99.90;;;;;;5058695;28;20340;-59
2022/04/14 12:26:19;;;;;;;5.80;4.20;;;21.30;99.90;;;;;;5065758;28;20219;-60
2022/04/14 12:28:47;;;;;;;8.90;4.33;;;21.20;99.90;;;;;;5061612;28;20312;-60
2022/04/14 12:31:16;;;;;;;8.27;4.73;;;20.80;99.90;;;;;;5060332;28;20531;-59
2022/04/14 12:34:00;;;;;;;4.87;3.20;;;20.90;99.90;;;;;;5061791;28;20204;-61
2022/04/14 12:36:47;;;;;;;6.03;3.70;;;21.50;99.90;;;;;;5058575;28;20292;-60
2022/04/14 12:39:21;;;;;;;6.47;4.13;;;21.20;99.90;;;;;;5065639;28;20214;-59
2022/04/14 12:41:48;;;;;;;6.00;3.93;;;21.50;99.90;;;;;;5065125;28;20207;-59
2022/04/14 12:44:18;;;;;;;4.93;4.27;;;21.80;99.90;;;;;;5064554;28;20684;-59
2022/04/14 12:46:49;;;;;;;8.07;3.93;;;21.60;99.90;;;;;;5060022;28;20724;-60
2022/04/14 12:49:38;;;;;;;8.03;3.90;;;21.60;99.90;;;;;;5043665;28;20280;-60